Pucon, Chile
Current Conditions -  °F | °C
As of 11:00 AM on Friday 31 Oct 2014 (Local Time) from SCQP Reporting Station
Broken Clouds Broken Clouds  
Wind Chill: 52°   Ceiling: 3900
Heat Index: 52°   Visibility: 6mi
Dew Point: 37°   Wind: 3mph
Humidity: 58%   Direction: 130°SE
Pressure: 30.24"   Gusts: NA
Location:  39.28°S, 71.97°W
Report Text: SCQP 311500Z 13003KT 080V210 9999 BKN039 11/03 Q1024
Loading
Personal Weather Stations






























Interactive Weather Map
Tropical Storm Tracking
New forecast layout! Learn more

10-Day Weather Forecast

Advertisements
Track Severe Weather on mobile